Time;durP1;ratioP1;P1;durP2;ratioP2;P2;SDS_P1;SDS_P2;PMS_P1;PMS_P2;Temp;Humidity;BMP_temperature;BMP_pressure;BME280_temperature;BME280_humidity;BME280_pressure;Samples;Min_cycle;Max_cycle;Signal;HPM_P1;HPM_P2
2023/10/05 00:01:31;;;;;;;2.70;1.45;;;11.90;99.90;;;;;;5093599;28;20385;-80
2023/10/05 00:03:58;;;;;;;3.08;1.60;;;12.00;99.90;;;;;;5092659;28;20077;-80
2023/10/05 00:06:24;;;;;;;6.00;1.63;;;12.10;99.90;;;;;;5094071;28;20111;-80
2023/10/05 00:08:52;;;;;;;6.22;1.73;;;12.00;99.90;;;;;;5093223;28;20448;-80
2023/10/05 00:11:24;;;;;;;3.13;1.83;;;12.00;99.90;;;;;;5092491;28;20028;-80
2023/10/05 00:13:56;;;;;;;3.50;1.77;;;12.10;99.90;;;;;;5094013;28;20067;-80
2023/10/05 00:16:22;;;;;;;4.40;1.52;;;12.00;99.90;;;;;;5093142;28;20028;-81
2023/10/05 00:18:49;;;;;;;2.97;1.50;;;12.00;99.90;;;;;;5093083;28;20028;-80
2023/10/05 00:21:19;;;;;;;4.88;1.55;;;12.00;99.90;;;;;;5093395;28;20024;-79
2023/10/05 00:23:57;;;;;;;2.65;1.67;;;12.00;99.90;;;;;;5092873;28;20035;-80
2023/10/05 00:26:28;;;;;;;4.47;1.52;;;11.90;99.90;;;;;;5093766;28;20028;-81
2023/10/05 00:31:39;;;;;;;4.75;1.50;;;12.00;99.90;;;;;;5094043;28;20036;-83
2023/10/05 00:34:09;;;;;;;3.55;1.23;;;12.00;99.90;;;;;;5092155;28;20055;-83
2023/10/05 00:36:39;;;;;;;2.97;1.38;;;11.90;99.90;;;;;;5093984;28;20103;-83
2023/10/05 00:39:08;;;;;;;6.88;1.88;;;11.90;99.90;;;;;;5092612;28;20109;-82
2023/10/05 00:41:34;;;;;;;3.30;1.50;;;11.90;99.90;;;;;;5092715;28;20054;-81
2023/10/05 00:44:00;;;;;;;8.20;1.70;;;11.90;99.90;;;;;;5091946;28;20476;-81
2023/10/05 00:46:25;;;;;;;4.75;1.40;;;11.80;99.90;;;;;;5093648;28;20028;-81
2023/10/05 00:49:03;;;;;;;2.60;1.30;;;11.80;99.90;;;;;;5092552;28;20465;-81
2023/10/05 00:51:34;;;;;;;2.42;1.50;;;11.80;99.90;;;;;;5092959;28;20031;-81
2023/10/05 00:54:16;;;;;;;2.78;1.70;;;11.90;99.90;;;;;;5092594;28;20427;-82
2023/10/05 00:56:42;;;;;;;3.50;1.40;;;11.90;99.90;;;;;;5092608;28;20092;-81
2023/10/05 00:59:11;;;;;;;5.45;1.45;;;11.90;99.90;;;;;;5093109;28;20055;-83
2023/10/05 01:04:52;;;;;;;2.60;1.25;;;11.90;99.90;;;;;;5093420;28;20098;-82
2023/10/05 01:07:18;;;;;;;3.85;1.30;;;11.80;99.90;;;;;;5093509;28;20027;-83
2023/10/05 01:12:34;;;;;;;3.25;1.65;;;11.80;99.90;;;;;;5097435;28;20465;-82
2023/10/05 01:15:03;;;;;;;2.45;1.50;;;11.80;99.90;;;;;;5097608;28;20020;-83
2023/10/05 01:17:30;;;;;;;3.63;1.30;;;11.80;99.90;;;;;;5096715;28;20024;-83
2023/10/05 01:20:06;;;;;;;3.20;2.08;;;11.80;99.90;;;;;;5096593;28;20032;-83
2023/10/05 01:22:35;;;;;;;2.10;1.25;;;11.80;99.90;;;;;;5096695;28;20032;-82
2023/10/05 01:25:04;;;;;;;3.85;1.27;;;11.80;99.90;;;;;;5097109;28;20028;-82
2023/10/05 01:27:31;;;;;;;3.92;1.50;;;11.70;99.90;;;;;;5096146;28;20075;-81
2023/10/05 01:29:57;;;;;;;3.03;1.58;;;11.70;99.90;;;;;;5096224;28;20067;-80
2023/10/05 01:32:23;;;;;;;5.50;1.60;;;11.60;99.90;;;;;;5096942;28;20028;-81
2023/10/05 01:34:50;;;;;;;3.85;1.73;;;11.60;99.90;;;;;;5096073;28;20051;-81
2023/10/05 01:37:18;;;;;;;2.92;1.38;;;11.60;99.90;;;;;;5095851;28;20028;-81
2023/10/05 01:39:44;;;;;;;2.70;1.30;;;11.50;99.90;;;;;;5096164;28;20024;-80
2023/10/05 01:42:14;;;;;;;2.95;1.20;;;11.50;99.90;;;;;;5092245;28;20036;-81
2023/10/05 01:44:47;;;;;;;4.05;1.40;;;11.60;99.90;;;;;;5075454;28;20036;-82
2023/10/05 01:47:16;;;;;;;3.00;1.52;;;11.60;99.90;;;;;;5075416;28;20035;-82
2023/10/05 01:49:45;;;;;;;3.42;1.05;;;11.50;99.90;;;;;;5075727;28;20025;-82
2023/10/05 01:52:16;;;;;;;3.30;1.30;;;11.50;99.90;;;;;;5075057;28;20029;-82
2023/10/05 01:54:43;;;;;;;5.00;1.45;;;11.40;99.90;;;;;;5075619;28;20055;-82
2023/10/05 01:57:09;;;;;;;4.90;1.13;;;11.40;99.90;;;;;;5075091;28;20032;-83
2023/10/05 01:59:37;;;;;;;3.97;1.17;;;11.50;99.90;;;;;;5075336;28;20082;-82
2023/10/05 02:02:10;;;;;;;3.30;1.15;;;11.60;99.90;;;;;;5074841;28;20032;-83
2023/10/05 02:04:44;;;;;;;4.18;1.52;;;11.60;99.90;;;;;;5075370;28;20066;-80
2023/10/05 02:07:16;;;;;;;2.97;1.20;;;11.70;99.90;;;;;;5075785;28;20021;-81
2023/10/05 02:09:42;;;;;;;4.00;1.40;;;11.70;99.90;;;;;;5075113;28;20033;-80
2023/10/05 02:12:09;;;;;;;2.22;1.45;;;11.70;99.90;;;;;;5075892;28;20028;-81
2023/10/05 02:14:43;;;;;;;2.08;0.95;;;11.70;99.90;;;;;;5092002;28;20029;-80
2023/10/05 02:17:10;;;;;;;3.63;1.20;;;11.70;99.90;;;;;;5074825;28;20024;-81
2023/10/05 02:19:38;;;;;;;2.08;1.27;;;11.70;99.90;;;;;;5091217;28;20020;-81
2023/10/05 02:22:10;;;;;;;2.33;1.00;;;11.70;99.90;;;;;;5090789;28;20033;-82
2023/10/05 02:24:36;;;;;;;2.58;0.75;;;11.80;99.90;;;;;;5075358;28;20051;-82
2023/10/05 02:29:32;;;;;;;3.53;1.10;;;11.80;99.90;;;;;;5076036;28;20115;-81
2023/10/05 02:34:45;;;;;;;4.45;1.23;;;11.90;99.90;;;;;;5075460;28;20048;-81
2023/10/05 02:37:12;;;;;;;3.97;1.20;;;11.90;99.90;;;;;;5074314;28;20032;-82
2023/10/05 02:39:38;;;;;;;4.20;1.20;;;12.00;99.90;;;;;;5074998;28;20028;-81
2023/10/05 02:42:12;;;;;;;1.75;1.00;;;11.80;99.90;;;;;;5074440;28;20457;-81
2023/10/05 02:44:38;;;;;;;1.77;0.90;;;11.70;99.90;;;;;;5074861;28;20092;-81
2023/10/05 02:47:13;;;;;;;2.47;1.30;;;11.80;99.90;;;;;;5074525;28;20025;-81
2023/10/05 02:49:47;;;;;;;2.42;0.90;;;11.70;99.90;;;;;;5075610;28;20524;-81
2023/10/05 02:52:15;;;;;;;3.65;0.98;;;11.70;99.90;;;;;;5073982;28;20043;-81
2023/10/05 02:54:41;;;;;;;2.70;1.15;;;11.70;99.90;;;;;;5075512;28;20020;-80
2023/10/05 02:57:08;;;;;;;2.38;1.20;;;11.70;99.90;;;;;;5090337;28;20028;-83
2023/10/05 02:59:34;;;;;;;4.22;1.00;;;11.70;99.90;;;;;;5074449;28;20533;-82
2023/10/05 03:02:06;;;;;;;2.63;0.95;;;11.70;99.90;;;;;;5075256;28;20028;-82
2023/10/05 03:04:48;;;;;;;;;;;11.70;99.90;;;;;;5074947;28;20063;-82
2023/10/05 03:07:15;;;;;;;3.07;1.23;;;11.60;99.90;;;;;;5073992;28;19916;-83
2023/10/05 03:09:42;;;;;;;2.63;1.30;;;11.60;99.90;;;;;;5075197;28;20311;-83
2023/10/05 03:12:08;;;;;;;1.98;1.20;;;11.60;99.90;;;;;;5073602;28;20470;-83
2023/10/05 03:14:34;;;;;;;2.80;0.98;;;11.50;99.90;;;;;;5075130;28;20155;-82
2023/10/05 03:17:05;;;;;;;4.88;1.40;;;11.50;99.90;;;;;;5073928;28;20059;-80
2023/10/05 03:19:36;;;;;;;5.75;1.45;;;11.60;99.90;;;;;;5073468;28;20020;-80
2023/10/05 03:22:04;;;;;;;2.97;1.30;;;11.60;99.90;;;;;;5074166;28;20028;-81
2023/10/05 03:24:30;;;;;;;3.38;1.40;;;11.60;99.90;;;;;;5074406;28;20098;-82
2023/10/05 03:26:56;;;;;;;3.33;1.40;;;11.60;99.90;;;;;;5073696;28;20037;-82
2023/10/05 03:29:22;;;;;;;3.53;1.05;;;11.70;99.90;;;;;;5073419;28;20028;-83
2023/10/05 03:31:55;;;;;;;3.85;1.27;;;11.70;99.90;;;;;;5073084;28;20039;-81
2023/10/05 03:34:26;;;;;;;5.78;1.42;;;11.70;99.90;;;;;;5074248;28;20048;-82
2023/10/05 03:36:55;;;;;;;3.58;1.00;;;11.70;99.90;;;;;;5073866;28;20028;-82
2023/10/05 03:39:25;;;;;;;3.63;1.50;;;11.70;99.90;;;;;;5072998;28;20099;-81
2023/10/05 03:41:51;;;;;;;5.07;1.23;;;11.70;99.90;;;;;;5074374;28;20032;-82
2023/10/05 03:44:17;;;;;;;2.53;1.13;;;11.70;99.90;;;;;;5073054;28;20025;-81
2023/10/05 03:46:46;;;;;;;2.30;1.10;;;11.70;99.90;;;;;;5074764;28;20511;-81
2023/10/05 03:49:15;;;;;;;2.58;1.63;;;11.70;99.90;;;;;;5073810;28;20027;-81
2023/10/05 03:51:50;;;;;;;3.67;1.38;;;11.70;99.90;;;;;;5073543;28;20105;-81
2023/10/05 03:54:25;;;;;;;3.92;1.10;;;11.70;99.90;;;;;;5073899;28;20028;-82
2023/10/05 03:57:10;;;;;;;3.22;1.20;;;11.70;99.90;;;;;;5073143;28;20024;-81
2023/10/05 03:59:36;;;;;;;4.88;1.20;;;11.80;99.90;;;;;;5073593;28;20036;-82
2023/10/05 04:02:04;;;;;;;3.38;1.15;;;11.80;99.90;;;;;;5073275;28;20033;-81
2023/10/05 04:04:35;;;;;;;2.33;1.20;;;11.80;99.90;;;;;;5073743;28;20028;-83
2023/10/05 04:07:01;;;;;;;3.38;1.20;;;11.80;99.90;;;;;;5073346;28;20111;-83
2023/10/05 04:09:29;;;;;;;4.55;1.40;;;11.80;99.90;;;;;;5072712;28;20025;-83
2023/10/05 04:12:00;;;;;;;3.78;1.67;;;11.80;99.90;;;;;;5073038;28;20032;-82
2023/10/05 04:14:26;;;;;;;5.47;1.67;;;11.70;99.90;;;;;;5072944;28;20025;-82
2023/10/05 04:16:53;;;;;;;5.07;1.10;;;11.70;99.90;;;;;;5073344;28;20028;-82
2023/10/05 04:19:19;;;;;;;4.20;1.50;;;11.70;99.90;;;;;;5072605;28;20024;-83
2023/10/05 04:21:45;;;;;;;5.10;1.67;;;11.70;99.90;;;;;;5072986;28;20449;-82
2023/10/05 04:24:14;;;;;;;2.90;1.58;;;11.70;99.90;;;;;;5072625;28;20024;-83
2023/10/05 04:26:45;;;;;;;3.88;1.33;;;11.70;99.90;;;;;;5073122;28;20032;-83
2023/10/05 04:29:20;;;;;;;3.80;1.50;;;11.80;99.90;;;;;;5073049;28;20523;-81
2023/10/05 04:31:48;;;;;;;6.43;1.60;;;11.80;99.90;;;;;;5073259;28;20040;-82
2023/10/05 04:34:20;;;;;;;2.97;1.13;;;11.80;99.90;;;;;;5073336;28;20062;-83
2023/10/05 04:36:48;;;;;;;3.20;1.48;;;11.80;99.90;;;;;;5072960;28;20035;-83
2023/10/05 04:39:28;;;;;;;4.75;1.50;;;11.80;99.90;;;;;;5072571;28;20117;-83
2023/10/05 04:41:56;;;;;;;4.82;1.10;;;11.90;99.90;;;;;;5073767;28;20056;-82
2023/10/05 04:44:21;;;;;;;4.32;1.38;;;11.80;99.90;;;;;;5091192;28;20028;-82
2023/10/05 04:46:48;;;;;;;4.43;1.58;;;11.80;99.90;;;;;;5076979;28;20439;-81
2023/10/05 04:49:14;;;;;;;4.00;1.52;;;11.80;99.90;;;;;;5077605;28;20031;-82
2023/10/05 04:51:41;;;;;;;4.90;1.50;;;11.80;99.90;;;;;;5078003;28;20513;-82
2023/10/05 04:54:11;;;;;;;3.60;1.75;;;11.80;99.90;;;;;;5093457;28;20020;-82
2023/10/05 04:56:40;;;;;;;4.45;1.60;;;11.80;99.90;;;;;;5077141;28;20496;-82
2023/10/05 05:07:01;;;;;;;4.63;1.33;;;11.90;99.90;;;;;;5077522;28;20028;-82
2023/10/05 05:09:34;;;;;;;4.03;1.48;;;11.90;99.90;;;;;;5076029;28;20025;-81
2023/10/05 05:12:08;;;;;;;3.60;1.60;;;11.90;99.90;;;;;;5076726;28;20028;-82
2023/10/05 05:14:36;;;;;;;3.75;1.40;;;11.80;99.90;;;;;;5065535;28;20037;-81
2023/10/05 05:17:04;;;;;;;4.22;1.23;;;11.80;99.90;;;;;;5057203;28;20182;-81
2023/10/05 05:19:32;;;;;;;7.28;1.40;;;11.80;99.90;;;;;;5055714;28;20031;-81
2023/10/05 05:22:04;;;;;;;4.32;1.80;;;11.80;99.90;;;;;;5072579;28;20033;-80
2023/10/05 05:24:31;;;;;;;2.40;1.40;;;11.70;99.90;;;;;;5056675;28;20470;-80
2023/10/05 05:27:00;;;;;;;5.05;1.95;;;11.70;99.90;;;;;;5057040;28;20052;-80
2023/10/05 05:29:29;;;;;;;3.80;1.35;;;11.70;99.90;;;;;;5056502;28;20025;-80
2023/10/05 05:31:55;;;;;;;4.30;1.30;;;11.80;99.90;;;;;;5056007;28;20484;-81
2023/10/05 05:34:25;;;;;;;5.18;1.75;;;11.70;99.90;;;;;;5056795;28;20048;-83
2023/10/05 05:36:53;;;;;;;10.55;1.70;;;11.80;99.90;;;;;;5072974;28;20071;-82
2023/10/05 05:39:25;;;;;;;5.80;1.42;;;11.80;99.90;;;;;;5065149;28;20032;-83
2023/10/05 05:41:59;;;;;;;2.33;1.35;;;11.80;99.90;;;;;;5075954;28;20094;-82
2023/10/05 05:44:28;;;;;;;7.35;1.52;;;11.80;99.90;;;;;;5075263;28;20044;-83
2023/10/05 05:46:59;;;;;;;5.28;1.40;;;11.70;99.90;;;;;;5076991;28;20021;-82
2023/10/05 05:49:27;;;;;;;5.80;1.80;;;11.70;99.90;;;;;;5075189;28;20071;-83
2023/10/05 05:51:52;;;;;;;7.07;2.00;;;11.70;99.90;;;;;;5075479;28;20028;-82
2023/10/05 05:54:18;;;;;;;6.68;1.83;;;11.70;99.90;;;;;;5074969;28;20032;-83
2023/10/05 05:56:44;;;;;;;6.10;1.75;;;11.80;99.90;;;;;;5076724;28;20073;-82
2023/10/05 05:59:11;;;;;;;4.38;1.58;;;11.80;99.90;;;;;;5076571;28;20111;-82
2023/10/05 06:01:37;;;;;;;5.68;2.00;;;11.80;99.90;;;;;;5074799;28;20492;-83
2023/10/05 06:04:03;;;;;;;6.10;1.83;;;11.80;99.90;;;;;;5076299;28;20041;-82
2023/10/05 06:06:29;;;;;;;6.60;2.00;;;11.80;99.90;;;;;;5074673;28;20020;-83
2023/10/05 06:08:56;;;;;;;5.97;2.33;;;11.80;99.90;;;;;;5075253;28;20031;-82
2023/10/05 06:11:22;;;;;;;7.82;2.30;;;11.80;99.90;;;;;;5074569;28;20427;-81
2023/10/05 06:13:49;;;;;;;10.25;2.15;;;11.80;99.90;;;;;;5074820;28;20024;-81
2023/10/05 06:16:15;;;;;;;5.63;2.38;;;11.80;99.90;;;;;;5076263;28;20021;-81
2023/10/05 06:18:41;;;;;;;8.25;2.25;;;11.90;99.90;;;;;;5074326;28;20055;-81
2023/10/05 06:21:06;;;;;;;9.85;2.47;;;11.90;99.90;;;;;;5075925;28;20033;-81
2023/10/05 06:23:34;;;;;;;8.35;2.40;;;11.90;99.90;;;;;;5074353;28;20534;-81
2023/10/05 06:26:00;;;;;;;8.00;2.30;;;11.90;99.90;;;;;;5075053;28;20028;-80
2023/10/05 06:28:27;;;;;;;7.28;2.45;;;12.00;99.90;;;;;;5074276;28;20036;-81
2023/10/05 06:30:53;;;;;;;9.75;3.22;;;11.90;99.90;;;;;;5070058;28;20037;-82
2023/10/05 06:33:19;;;;;;;7.28;2.22;;;11.90;99.90;;;;;;5093097;28;20048;-82
2023/10/05 06:35:46;;;;;;;7.97;2.40;;;12.00;99.90;;;;;;5092858;28;20047;-82
2023/10/05 06:38:12;;;;;;;7.15;2.25;;;12.00;99.90;;;;;;5095231;28;20050;-82
2023/10/05 06:40:37;;;;;;;5.50;2.47;;;12.00;99.90;;;;;;5090673;28;20517;-82
2023/10/05 06:43:05;;;;;;;5.72;2.50;;;12.00;99.90;;;;;;5074324;28;20040;-83
2023/10/05 06:45:31;;;;;;;5.15;2.47;;;12.00;99.90;;;;;;5075088;28;20025;-82
2023/10/05 06:47:57;;;;;;;5.38;2.08;;;12.10;99.90;;;;;;5074507;28;20036;-81
2023/10/05 06:50:23;;;;;;;4.53;2.70;;;12.10;99.90;;;;;;5076322;28;20029;-81
2023/10/05 06:52:49;;;;;;;5.05;2.30;;;12.10;99.90;;;;;;5094740;28;20073;-81
2023/10/05 06:55:18;;;;;;;6.63;2.05;;;12.10;99.90;;;;;;5094243;28;20110;-81
2023/10/05 06:57:45;;;;;;;8.63;2.30;;;12.20;99.90;;;;;;5093808;28;20028;-81
2023/10/05 07:00:20;;;;;;;5.78;2.08;;;12.20;99.90;;;;;;5093315;28;20469;-81
2023/10/05 07:02:47;;;;;;;10.20;3.00;;;12.30;99.90;;;;;;5079484;28;20094;-81
2023/10/05 07:05:14;;;;;;;4.82;2.60;;;12.30;99.90;;;;;;5089557;28;20136;-80
2023/10/05 07:07:40;;;;;;;4.63;2.33;;;12.30;99.90;;;;;;5094795;28;20024;-82
2023/10/05 07:10:07;;;;;;;4.75;2.42;;;12.30;99.90;;;;;;5094967;28;20444;-83
2023/10/05 07:12:35;;;;;;;8.48;2.75;;;12.30;99.90;;;;;;5073625;28;20036;-82
2023/10/05 07:15:01;;;;;;;10.82;2.97;;;12.30;99.90;;;;;;5073844;28;20025;-83
2023/10/05 07:17:29;;;;;;;6.32;2.60;;;12.30;99.90;;;;;;5073525;28;20420;-83
2023/10/05 07:19:54;;;;;;;7.00;2.80;;;12.30;99.90;;;;;;5073976;28;20025;-82
2023/10/05 07:22:21;;;;;;;5.00;2.25;;;12.40;99.90;;;;;;5092548;28;20032;-81
2023/10/05 07:24:47;;;;;;;5.60;2.95;;;12.50;99.90;;;;;;5094393;28;20027;-82
2023/10/05 07:27:13;;;;;;;5.47;2.80;;;12.50;99.90;;;;;;5086115;28;20052;-82
2023/10/05 07:29:44;;;;;;;6.05;2.08;;;12.50;99.90;;;;;;5073224;28;20032;-84
2023/10/05 07:32:11;;;;;;;7.77;2.40;;;12.50;99.90;;;;;;5077556;28;20029;-82
2023/10/05 07:34:37;;;;;;;7.50;2.88;;;12.60;99.90;;;;;;5072780;28;20052;-82
2023/10/05 07:37:03;;;;;;;7.38;2.90;;;12.60;99.90;;;;;;5073758;28;20116;-82
2023/10/05 07:39:28;;;;;;;4.07;2.17;;;12.60;99.90;;;;;;5074221;28;20119;-83
2023/10/05 07:41:54;;;;;;;4.97;2.22;;;12.60;99.90;;;;;;5069168;28;20040;-77
2023/10/05 07:44:20;;;;;;;4.75;2.13;;;12.60;99.90;;;;;;5066340;28;20044;-76
2023/10/05 07:46:46;;;;;;;5.43;2.17;;;12.70;99.90;;;;;;5072009;28;20024;-76
2023/10/05 07:49:13;;;;;;;5.07;2.55;;;12.70;99.90;;;;;;5066218;28;20066;-79
2023/10/05 07:51:39;;;;;;;5.05;2.10;;;12.70;99.90;;;;;;5067682;28;20465;-78
2023/10/05 07:54:05;;;;;;;5.63;2.10;;;12.70;99.90;;;;;;5070820;28;20032;-77
2023/10/05 07:56:32;;;;;;;3.85;2.10;;;12.80;99.90;;;;;;5071702;28;20029;-79
2023/10/05 07:58:58;;;;;;;3.97;2.08;;;12.80;99.90;;;;;;5071964;28;20037;-79
2023/10/05 08:01:25;;;;;;;4.90;2.58;;;12.80;99.90;;;;;;5079901;28;20385;-79
2023/10/05 08:03:51;;;;;;;9.25;2.50;;;12.90;99.90;;;;;;5072383;28;20043;-79
2023/10/05 08:06:17;;;;;;;6.32;2.97;;;12.90;99.90;;;;;;5073505;28;20029;-79
2023/10/05 08:08:43;;;;;;;8.43;2.38;;;13.00;99.90;;;;;;5072772;28;20052;-78
2023/10/05 08:11:12;;;;;;;3.63;2.33;;;13.00;99.90;;;;;;5057948;28;20025;-78
2023/10/05 08:13:39;;;;;;;4.63;2.10;;;13.00;99.90;;;;;;5067177;28;20382;-78
2023/10/05 08:16:08;;;;;;;6.68;2.20;;;13.10;99.90;;;;;;5052514;28;20021;-77
2023/10/05 08:18:34;;;;;;;6.53;3.22;;;13.20;99.90;;;;;;5093561;28;20037;-77
2023/10/05 08:21:00;;;;;;;9.95;2.78;;;13.20;99.90;;;;;;5068769;28;20051;-76
2023/10/05 08:23:25;;;;;;;7.13;2.60;;;13.20;99.90;;;;;;5084051;28;20557;-76
2023/10/05 08:25:51;;;;;;;5.05;2.45;;;13.30;99.90;;;;;;5065944;28;20033;-76
2023/10/05 08:28:20;;;;;;;5.13;2.47;;;13.30;99.90;;;;;;5065587;28;20031;-79
2023/10/05 08:30:57;;;;;;;5.30;2.35;;;13.30;99.90;;;;;;5077622;28;20051;-77
2023/10/05 08:33:26;;;;;;;6.07;2.22;;;13.30;99.90;;;;;;5093950;28;20068;-81
2023/10/05 08:35:52;;;;;;;4.00;2.13;;;13.30;99.90;;;;;;5075716;28;20032;-77
2023/10/05 08:38:17;;;;;;;4.38;2.30;;;13.30;99.90;;;;;;5083375;28;20028;-79
2023/10/05 08:40:45;;;;;;;7.57;2.15;;;13.30;99.90;;;;;;5080979;28;20033;-78
2023/10/05 08:43:11;;;;;;;7.07;2.53;;;13.40;99.90;;;;;;5078144;28;20032;-79
2023/10/05 08:45:51;;;;;;;8.35;2.90;;;13.40;99.90;;;;;;5080762;28;20374;-77
2023/10/05 08:48:39;;;;;;;5.10;2.53;;;13.50;99.90;;;;;;5071805;28;20063;-78
2023/10/05 08:51:12;;;;;;;5.45;2.22;;;13.50;99.90;;;;;;5081958;28;20543;-77
2023/10/05 08:53:43;;;;;;;5.13;2.33;;;13.60;99.90;;;;;;5066598;28;20029;-78
2023/10/05 08:56:13;;;;;;;5.93;2.30;;;13.60;99.90;;;;;;5068617;28;20025;-78
2023/10/05 08:58:45;;;;;;;6.00;1.92;;;13.70;99.90;;;;;;5050858;28;20128;-77
2023/10/05 09:01:29;;;;;;;7.55;2.53;;;13.70;99.90;;;;;;5052083;28;20029;-82
2023/10/05 09:04:23;;;;;;;8.82;2.47;;;13.70;99.90;;;;;;5069461;28;20033;-78
2023/10/05 09:06:55;;;;;;;6.30;2.65;;;13.70;99.90;;;;;;5074632;28;20052;-79
2023/10/05 09:09:57;;;;;;;7.07;2.67;;;13.80;99.90;;;;;;5088042;28;20029;-77
2023/10/05 09:12:46;;;;;;;6.00;2.53;;;13.80;99.90;;;;;;5060421;28;20040;-78
2023/10/05 09:15:28;;;;;;;9.43;2.40;;;13.90;99.90;;;;;;5070488;28;20050;-78
2023/10/05 09:17:57;;;;;;;4.45;2.10;;;13.90;99.90;;;;;;5078800;28;20061;-75
2023/10/05 09:20:31;;;;;;;7.03;2.40;;;14.00;99.90;;;;;;5071934;28;20023;-80
2023/10/05 09:23:00;;;;;;;8.32;2.55;;;13.90;99.90;;;;;;5073872;28;20423;-77
2023/10/05 09:25:35;;;;;;;6.38;2.25;;;14.00;99.90;;;;;;5054192;28;20027;-77
2023/10/05 09:28:14;;;;;;;7.13;2.38;;;14.00;99.90;;;;;;5072349;28;20032;-76
2023/10/05 09:30:57;;;;;;;11.55;2.35;;;14.00;99.90;;;;;;5059490;28;20029;-75
2023/10/05 09:33:26;;;;;;;10.27;2.55;;;14.10;99.90;;;;;;5071939;28;20072;-76
2023/10/05 09:36:06;;;;;;;6.43;2.00;;;14.10;99.90;;;;;;5061233;28;20031;-75
2023/10/05 09:38:35;;;;;;;7.70;2.22;;;14.20;99.90;;;;;;5062751;28;20025;-76
2023/10/05 09:41:02;;;;;;;5.85;2.08;;;14.20;99.90;;;;;;5070342;28;20111;-76
2023/10/05 09:43:33;;;;;;;12.63;2.88;;;14.20;99.90;;;;;;5061073;28;20085;-76
2023/10/05 09:45:59;;;;;;;4.80;2.45;;;14.30;99.90;;;;;;5074064;28;20035;-76
2023/10/05 09:48:25;;;;;;;5.88;2.25;;;14.40;99.90;;;;;;5073478;28;20123;-77
2023/10/05 09:50:52;;;;;;;8.75;2.50;;;14.50;99.90;;;;;;5074045;28;20078;-76
2023/10/05 09:53:18;;;;;;;9.18;2.30;;;14.50;99.90;;;;;;5075314;28;20462;-76
2023/10/05 09:55:53;;;;;;;8.10;2.58;;;14.60;99.90;;;;;;5083169;28;20024;-74
2023/10/05 09:58:20;;;;;;;7.85;2.17;;;14.70;99.90;;;;;;5080463;28;20165;-77
2023/10/05 10:03:13;;;;;;;8.82;2.40;;;14.70;99.90;;;;;;5077650;28;20024;-76
2023/10/05 10:05:48;;;;;;;10.23;2.70;;;14.80;99.90;;;;;;5094205;28;20113;-78
2023/10/05 10:08:21;;;;;;;14.40;2.65;;;14.90;99.90;;;;;;5074053;28;20086;-76
2023/10/05 10:11:09;;;;;;;9.85;2.50;;;14.90;99.90;;;;;;5069887;28;20025;-76
2023/10/05 10:13:37;;;;;;;11.02;2.55;;;15.00;99.90;;;;;;5092483;28;20040;-76
2023/10/05 10:16:21;;;;;;;5.40;2.30;;;15.00;99.90;;;;;;5074993;28;20117;-76
2023/10/05 10:19:19;;;;;;;10.90;3.05;;;15.10;99.90;;;;;;5070762;28;20024;-76
2023/10/05 10:21:47;;;;;;;6.55;2.67;;;15.20;99.90;;;;;;5069497;28;20345;-77
2023/10/05 10:24:20;;;;;;;12.65;2.88;;;15.30;99.90;;;;;;5087513;28;20051;-77
2023/10/05 10:27:07;;;;;;;10.07;2.92;;;15.30;99.90;;;;;;5089151;28;20034;-76
2023/10/05 10:29:55;;;;;;;10.88;2.42;;;15.40;99.90;;;;;;5072770;28;20059;-76
2023/10/05 10:32:22;;;;;;;7.22;2.15;;;15.60;99.90;;;;;;5087435;28;20032;-77
2023/10/05 10:34:55;;;;;;;8.60;2.58;;;15.70;99.90;;;;;;5069894;28;20084;-77
2023/10/05 10:37:44;;;;;;;8.77;2.75;;;15.80;99.90;;;;;;5071307;28;20119;-76
2023/10/05 10:43:06;;;;;;;10.55;2.83;;;16.00;99.90;;;;;;5070624;28;20036;-76
2023/10/05 10:45:41;;;;;;;7.18;2.35;;;16.10;99.90;;;;;;5071077;28;20032;-76
2023/10/05 10:48:19;;;;;;;8.98;2.10;;;16.10;99.90;;;;;;5071917;28;20044;-76
2023/10/05 10:50:47;;;;;;;7.57;2.38;;;16.10;99.90;;;;;;5072748;28;20100;-77
2023/10/05 10:53:16;;;;;;;8.02;2.40;;;16.20;99.90;;;;;;5082895;28;20101;-77
2023/10/05 10:55:51;;;;;;;10.30;2.30;;;16.40;99.90;;;;;;5075084;28;20446;-76
2023/10/05 10:58:23;;;;;;;14.00;2.78;;;16.50;99.90;;;;;;5071009;28;20082;-76
2023/10/05 11:00:57;;;;;;;10.10;2.38;;;16.70;99.90;;;;;;5074298;28;20443;-76
2023/10/05 11:03:27;;;;;;;8.45;2.10;;;16.80;99.90;;;;;;5072630;28;20032;-76
2023/10/05 11:05:55;;;;;;;9.40;2.05;;;16.80;99.90;;;;;;5085052;28;20054;-77
2023/10/05 11:08:21;;;;;;;8.65;2.45;;;16.90;99.90;;;;;;5074784;28;20017;-76
2023/10/05 11:11:06;;;;;;;6.68;2.75;;;17.00;99.90;;;;;;5083307;28;20043;-76
2023/10/05 11:13:33;;;;;;;8.07;2.13;;;17.00;99.90;;;;;;5089213;28;20033;-76
2023/10/05 11:16:00;;;;;;;12.68;2.95;;;17.10;99.90;;;;;;5071484;28;20024;-76
2023/10/05 11:18:27;;;;;;;6.38;2.42;;;17.10;99.90;;;;;;5073394;28;20449;-83
2023/10/05 11:20:53;;;;;;;9.20;2.38;;;17.20;99.90;;;;;;5074021;28;20056;-76
2023/10/05 11:23:25;;;;;;;10.25;2.83;;;17.20;99.90;;;;;;5073470;28;20079;-79
2023/10/05 11:26:17;;;;;;;9.20;2.42;;;17.20;99.90;;;;;;5066137;28;20082;-78
2023/10/05 11:28:39;;;;;;;14.38;2.83;;;17.20;99.90;;;;;;5066073;28;20449;-79
2023/10/05 11:31:05;;;;;;;8.70;2.35;;;17.20;99.90;;;;;;5073611;28;20024;-78
2023/10/05 11:33:34;;;;;;;10.55;2.58;;;17.30;99.90;;;;;;5071603;28;20052;-77
2023/10/05 11:36:17;;;;;;;9.10;2.63;;;17.30;99.90;;;;;;5070809;28;20036;-77
2023/10/05 11:38:42;;;;;;;7.78;2.72;;;17.40;99.90;;;;;;5071892;28;20016;-77
2023/10/05 11:41:09;;;;;;;8.05;2.17;;;17.40;99.90;;;;;;5073462;28;20477;-78
2023/10/05 11:43:35;;;;;;;11.57;3.28;;;17.50;99.90;;;;;;5071767;28;20362;-78
2023/10/05 11:49:04;;;;;;;11.65;2.70;;;17.50;99.90;;;;;;5044996;28;20114;-77
2023/10/05 11:51:56;;;;;;;8.15;2.58;;;17.50;99.90;;;;;;5056802;28;20017;-79
2023/10/05 11:54:24;;;;;;;11.77;2.72;;;17.50;99.90;;;;;;5073012;28;20020;-78
2023/10/05 11:56:56;;;;;;;9.52;3.17;;;17.50;99.90;;;;;;5056942;28;20037;-78
2023/10/05 11:59:28;;;;;;;9.80;2.28;;;17.50;99.90;;;;;;5069604;28;20032;-78
2023/10/05 12:01:55;;;;;;;8.77;2.47;;;17.40;99.90;;;;;;5059104;28;20381;-78
2023/10/05 12:04:21;;;;;;;10.00;2.78;;;17.50;99.90;;;;;;5073106;28;20082;-78
2023/10/05 12:06:54;;;;;;;8.45;2.47;;;17.40;99.90;;;;;;5072672;28;20193;-78
2023/10/05 12:09:33;;;;;;;10.88;2.50;;;17.50;99.90;;;;;;5071902;28;20028;-78
2023/10/05 12:12:01;;;;;;;7.45;2.30;;;17.50;99.90;;;;;;5072171;28;20031;-78
2023/10/05 12:14:27;;;;;;;11.25;3.30;;;17.60;99.90;;;;;;5068713;28;20025;-84
2023/10/05 12:16:56;;;;;;;14.65;3.08;;;17.50;99.90;;;;;;5066828;28;20479;-78
2023/10/05 12:19:27;;;;;;;10.60;2.88;;;17.40;99.90;;;;;;5082551;28;20025;-78
2023/10/05 12:21:54;;;;;;;;;;;17.40;99.90;;;;;;5072280;28;20074;-78
2023/10/05 12:24:21;;;;;;;9.63;2.53;;;17.30;99.90;;;;;;5071750;28;20014;-77
2023/10/05 12:26:46;;;;;;;12.10;2.60;;;17.20;99.90;;;;;;5071193;28;20212;-78
2023/10/05 12:29:12;;;;;;;4.82;2.08;;;17.20;99.90;;;;;;5071801;28;20031;-78
2023/10/05 12:31:40;;;;;;;9.20;3.03;;;17.20;99.90;;;;;;5071384;28;20051;-78
2023/10/05 12:34:09;;;;;;;9.40;2.20;;;17.20;99.90;;;;;;5071737;28;20047;-78
2023/10/05 12:36:35;;;;;;;7.00;2.30;;;17.10;99.90;;;;;;5071504;28;20051;-78
2023/10/05 12:39:01;;;;;;;11.95;2.42;;;17.20;99.90;;;;;;5071813;28;20033;-78
2023/10/05 12:41:36;;;;;;;9.05;2.40;;;17.10;99.90;;;;;;5071228;28;20462;-79
2023/10/05 12:44:02;;;;;;;7.28;2.20;;;17.10;99.90;;;;;;5072849;28;20028;-78
2023/10/05 12:46:33;;;;;;;12.18;2.17;;;17.10;99.90;;;;;;5071184;28;20041;-79
2023/10/05 12:49:07;;;;;;;6.95;2.30;;;17.10;99.90;;;;;;5066071;28;20028;-78
2023/10/05 12:51:36;;;;;;;8.05;2.40;;;17.20;99.90;;;;;;5055179;28;20033;-78
2023/10/05 12:54:08;;;;;;;8.38;2.22;;;17.20;99.90;;;;;;5072860;28;20044;-78
2023/10/05 12:56:35;;;;;;;5.93;1.98;;;17.10;99.90;;;;;;5058472;28;20036;-79
2023/10/05 12:59:03;;;;;;;6.93;2.22;;;17.10;99.90;;;;;;5051395;28;20029;-77
2023/10/05 13:01:29;;;;;;;9.95;2.30;;;17.10;99.90;;;;;;5055574;28;20016;-79
2023/10/05 13:03:55;;;;;;;7.35;2.35;;;17.10;99.90;;;;;;5071459;28;20028;-77
2023/10/05 13:06:20;;;;;;;6.43;2.35;;;17.20;99.90;;;;;;5075697;28;20389;-77
2023/10/05 13:08:46;;;;;;;9.52;2.30;;;17.20;99.90;;;;;;5076015;28;20021;-78
2023/10/05 13:11:12;;;;;;;8.50;2.25;;;17.10;99.90;;;;;;5059556;28;20047;-78
2023/10/05 13:13:39;;;;;;;6.90;1.98;;;17.20;99.90;;;;;;5087086;28;20040;-77
2023/10/05 13:16:13;;;;;;;10.13;2.30;;;17.20;99.90;;;;;;5055094;28;20474;-77
2023/10/05 13:18:42;;;;;;;12.70;2.80;;;17.10;99.90;;;;;;5062150;28;20056;-77
2023/10/05 13:21:11;;;;;;;9.07;2.17;;;17.10;99.90;;;;;;5074957;28;20381;-78
2023/10/05 13:23:36;;;;;;;8.65;2.00;;;17.10;99.90;;;;;;5074595;28;20040;-78
2023/10/05 13:26:06;;;;;;;8.02;2.42;;;17.10;99.90;;;;;;5076081;28;20084;-78
2023/10/05 13:28:32;;;;;;;8.35;2.20;;;17.10;99.90;;;;;;5063490;28;20033;-80